createdAt,value
2022-12-31T00:02:16.797Z,96.86
2022-12-31T00:04:49.821Z,97.26
2022-12-31T00:07:20.325Z,97.93
2022-12-31T00:09:50.731Z,98.19
2022-12-31T00:12:21.110Z,99.02
2022-12-31T00:14:51.480Z,98.81
2022-12-31T00:17:21.785Z,98.84
2022-12-31T00:19:54.737Z,99.11
2022-12-31T00:22:25.147Z,98.93
2022-12-31T00:24:55.532Z,99.29
2022-12-31T00:27:26.001Z,99.85
2022-12-31T00:30:02.477Z,99.86
2022-12-31T00:32:34.722Z,99.21
2022-12-31T00:35:09.185Z,99.16
2022-12-31T00:37:39.601Z,99.45
2022-12-31T00:40:12.704Z,99.75
2022-12-31T00:42:43.133Z,100.00
2022-12-31T00:45:14.535Z,99.74
2022-12-31T00:47:44.952Z,99.67
2022-12-31T00:50:17.929Z,99.60
2022-12-31T00:52:48.326Z,100.00
2022-12-31T00:55:18.876Z,100.00
2022-12-31T00:57:49.285Z,100.00
2022-12-31T01:00:20.414Z,100.00
2022-12-31T01:02:50.997Z,100.00
2022-12-31T01:05:24.044Z,100.00
2022-12-31T01:07:54.397Z,100.00
2022-12-31T01:10:36.865Z,100.00
2022-12-31T01:13:07.390Z,100.00
2022-12-31T01:15:38.759Z,100.00
2022-12-31T01:18:11.265Z,100.00
2022-12-31T01:20:46.489Z,100.00
2022-12-31T01:23:16.994Z,100.00
2022-12-31T01:25:47.335Z,100.00
2022-12-31T01:28:17.683Z,100.00
2022-12-31T01:30:48.088Z,100.00
2022-12-31T01:33:18.471Z,100.00
2022-12-31T01:35:51.892Z,100.00
2022-12-31T01:38:22.259Z,100.00
2022-12-31T01:40:52.632Z,100.00
2022-12-31T01:43:24.166Z,100.00
2022-12-31T01:45:57.549Z,100.00
2022-12-31T01:48:29.728Z,100.00
2022-12-31T01:51:03.187Z,100.00
2022-12-31T01:53:34.233Z,100.00
2022-12-31T01:56:05.248Z,100.00
2022-12-31T01:58:41.922Z,100.00
2022-12-31T02:01:15.743Z,100.00
2022-12-31T02:03:46.607Z,100.00
2022-12-31T02:06:24.429Z,100.00
2022-12-31T02:08:54.860Z,100.00
2022-12-31T02:11:29.418Z,100.00
2022-12-31T02:14:04.907Z,100.00
2022-12-31T02:16:45.654Z,100.00
2022-12-31T02:20:03.181Z,100.00
2022-12-31T02:23:07.187Z,100.00
2022-12-31T02:26:08.245Z,100.00
2022-12-31T02:29:05.177Z,100.00
2022-12-31T02:31:50.312Z,100.00
2022-12-31T02:34:27.581Z,100.00
2022-12-31T02:37:01.158Z,100.00
2022-12-31T02:39:32.285Z,100.00
2022-12-31T02:42:03.947Z,100.00
2022-12-31T02:44:36.955Z,100.00
2022-12-31T02:47:25.205Z,100.00
2022-12-31T02:50:10.489Z,100.00
2022-12-31T02:52:55.893Z,100.00
2022-12-31T02:55:34.842Z,100.00
2022-12-31T02:58:19.470Z,100.00
2022-12-31T03:01:09.542Z,100.00
2022-12-31T03:03:43.313Z,100.00
2022-12-31T03:06:16.681Z,100.00
2022-12-31T03:08:59.360Z,100.00
2022-12-31T03:11:50.538Z,100.00
2022-12-31T03:14:20.634Z,100.00
2022-12-31T03:16:51.720Z,100.00
2022-12-31T03:19:36.739Z,100.00
2022-12-31T03:22:19.438Z,99.82
2022-12-31T03:25:02.181Z,99.33
2022-12-31T03:27:32.555Z,99.41
2022-12-31T03:30:03.684Z,99.00
2022-12-31T03:32:34.103Z,98.77
2022-12-31T03:35:08.382Z,98.63
2022-12-31T03:37:38.722Z,98.19
2022-12-31T03:40:12.363Z,97.84
2022-12-31T03:42:43.075Z,97.70
2022-12-31T03:45:15.257Z,97.73
2022-12-31T03:47:45.890Z,97.43
2022-12-31T03:50:21.874Z,97.21
2022-12-31T03:52:52.272Z,96.96
2022-12-31T03:55:22.928Z,97.18
2022-12-31T03:57:53.508Z,96.86
2022-12-31T04:00:25.520Z,96.64
2022-12-31T04:02:56.209Z,96.52
2022-12-31T04:05:29.524Z,96.53
2022-12-31T04:07:59.994Z,96.67
2022-12-31T04:10:30.403Z,97.11
2022-12-31T04:13:03.115Z,97.40
2022-12-31T04:15:33.560Z,97.20
2022-12-31T04:18:04.007Z,97.39
2022-12-31T04:20:37.089Z,97.42
2022-12-31T04:23:07.714Z,97.50
2022-12-31T04:25:38.084Z,97.82
2022-12-31T04:28:08.459Z,98.38
2022-12-31T04:30:38.859Z,98.59
2022-12-31T04:33:09.209Z,98.86
2022-12-31T04:35:42.199Z,99.29
2022-12-31T04:38:12.592Z,99.30
2022-12-31T04:41:03.179Z,99.57
2022-12-31T04:43:33.713Z,99.77
2022-12-31T04:46:04.253Z,99.84
2022-12-31T04:48:35.040Z,99.94
2022-12-31T04:51:08.744Z,100.00
2022-12-31T04:53:39.580Z,100.00
2022-12-31T04:56:11.954Z,99.70
2022-12-31T04:58:43.196Z,99.41
2022-12-31T05:01:15.020Z,99.39
2022-12-31T05:03:45.798Z,99.04
2022-12-31T05:06:21.620Z,98.90
2022-12-31T05:08:52.731Z,98.94
2022-12-31T05:11:23.104Z,98.85
2022-12-31T05:13:53.485Z,98.52
2022-12-31T05:16:24.064Z,97.96
2022-12-31T05:18:54.470Z,97.75
2022-12-31T05:21:27.505Z,97.47
2022-12-31T05:23:57.824Z,97.18
2022-12-31T05:26:28.219Z,96.58
2022-12-31T05:29:00.512Z,96.58
2022-12-31T05:31:30.935Z,96.56
2022-12-31T05:34:01.423Z,96.96
2022-12-31T05:36:34.432Z,97.26
2022-12-31T05:39:04.754Z,97.17
2022-12-31T05:41:35.175Z,97.53
2022-12-31T05:44:05.549Z,97.35
2022-12-31T05:46:35.993Z,97.23
2022-12-31T05:49:06.339Z,97.13
2022-12-31T05:51:39.331Z,96.86
2022-12-31T05:54:09.759Z,96.42
2022-12-31T05:56:40.552Z,95.97
2022-12-31T05:59:11.007Z,95.51
2022-12-31T06:01:41.533Z,95.68
2022-12-31T06:04:11.943Z,95.30
2022-12-31T06:06:45.041Z,95.25
2022-12-31T06:09:15.473Z,95.36
2022-12-31T06:11:46.224Z,95.30
2022-12-31T06:14:17.249Z,94.83
2022-12-31T06:16:47.288Z,94.87
2022-12-31T06:19:17.713Z,94.99
2022-12-31T06:21:50.784Z,95.13
2022-12-31T06:24:21.731Z,94.94
2022-12-31T06:26:51.754Z,94.58
2022-12-31T06:29:22.394Z,94.52
2022-12-31T06:31:52.769Z,94.23
2022-12-31T06:34:23.337Z,93.96
2022-12-31T06:36:56.371Z,93.57
2022-12-31T06:39:26.953Z,93.34
2022-12-31T06:41:57.384Z,93.07
2022-12-31T06:44:27.798Z,92.71
2022-12-31T06:46:58.261Z,92.40
2022-12-31T06:49:28.616Z,92.33
2022-12-31T06:52:01.640Z,92.19
2022-12-31T06:54:31.985Z,92.19
2022-12-31T06:57:04.246Z,92.31
2022-12-31T06:59:35.627Z,92.32
2022-12-31T07:02:23.519Z,92.84
2022-12-31T07:05:27.308Z,92.86
2022-12-31T07:08:13.046Z,93.27
2022-12-31T07:10:52.104Z,93.39
2022-12-31T07:13:46.038Z,93.87
2022-12-31T07:16:31.310Z,93.73
2022-12-31T07:19:18.816Z,93.92
2022-12-31T07:21:51.675Z,93.88
2022-12-31T07:24:26.017Z,94.36
2022-12-31T07:27:15.876Z,94.34
2022-12-31T07:30:04.617Z,94.24
2022-12-31T07:33:07.628Z,94.18
2022-12-31T07:35:53.697Z,93.84
2022-12-31T07:38:33.261Z,93.58
2022-12-31T07:41:15.479Z,93.14
2022-12-31T07:43:59.920Z,92.49
2022-12-31T07:46:41.585Z,91.73
2022-12-31T07:49:15.902Z,91.10
2022-12-31T07:51:47.480Z,90.72
2022-12-31T07:54:17.916Z,90.44
2022-12-31T07:56:53.203Z,89.60
2022-12-31T07:59:41.159Z,88.76
2022-12-31T08:02:24.229Z,88.20
2022-12-31T08:05:10.071Z,88.20
2022-12-31T08:07:49.093Z,88.01
2022-12-31T08:10:28.628Z,88.00
2022-12-31T08:13:06.749Z,87.70
2022-12-31T08:15:39.846Z,87.83
2022-12-31T08:18:12.063Z,87.88
2022-12-31T08:20:52.268Z,87.16
2022-12-31T08:23:30.370Z,87.61
2022-12-31T08:26:18.888Z,86.81
2022-12-31T08:29:09.836Z,86.49
2022-12-31T08:31:48.244Z,86.54
2022-12-31T08:34:28.228Z,87.04
2022-12-31T08:37:06.397Z,86.64
2022-12-31T08:40:10.365Z,86.71
2022-12-31T08:42:54.196Z,86.21
2022-12-31T08:45:33.746Z,85.55
2022-12-31T08:48:11.541Z,84.59
2022-12-31T08:50:42.835Z,84.26
2022-12-31T08:53:14.536Z,83.97
2022-12-31T08:55:46.787Z,83.06
2022-12-31T08:58:38.256Z,82.29
2022-12-31T09:01:12.738Z,81.73
2022-12-31T09:04:03.607Z,80.81
2022-12-31T09:06:40.908Z,80.26
2022-12-31T09:09:21.518Z,80.17
2022-12-31T09:12:00.220Z,79.88
2022-12-31T09:14:47.159Z,79.39
2022-12-31T09:17:53.269Z,78.62
2022-12-31T09:20:42.222Z,78.35
2022-12-31T09:23:15.520Z,78.20
2022-12-31T09:25:55.900Z,77.96
2022-12-31T09:28:44.189Z,77.84
2022-12-31T09:31:20.422Z,77.77
2022-12-31T09:33:58.758Z,77.92
2022-12-31T09:36:37.310Z,78.14
2022-12-31T09:39:15.232Z,77.66
2022-12-31T09:42:29.391Z,77.51
2022-12-31T09:45:38.033Z,77.85
2022-12-31T09:48:46.936Z,77.62
2022-12-31T09:51:31.873Z,77.69
2022-12-31T09:54:43.225Z,76.95
2022-12-31T09:57:42.026Z,76.43
2022-12-31T10:00:20.463Z,75.40
2022-12-31T10:03:16.261Z,74.50
2022-12-31T10:06:06.247Z,74.70
2022-12-31T10:08:57.679Z,73.94
2022-12-31T10:11:37.084Z,74.04
2022-12-31T10:14:28.242Z,73.66
2022-12-31T10:17:26.267Z,73.56
2022-12-31T10:20:37.724Z,73.42
2022-12-31T10:23:57.388Z,73.40
2022-12-31T10:26:55.095Z,73.40
2022-12-31T10:29:37.504Z,73.18
2022-12-31T10:32:23.737Z,73.24
2022-12-31T10:35:03.557Z,72.94
2022-12-31T10:37:44.483Z,72.60
2022-12-31T10:40:26.430Z,72.49
2022-12-31T10:43:50.464Z,73.22
2022-12-31T10:46:58.322Z,73.55
2022-12-31T10:50:15.824Z,73.47
2022-12-31T10:53:14.921Z,73.36
2022-12-31T10:56:23.016Z,73.10
2022-12-31T10:59:42.990Z,72.92
2022-12-31T11:03:02.079Z,72.72
2022-12-31T11:06:17.301Z,73.03
2022-12-31T11:09:47.696Z,72.79
2022-12-31T11:13:15.800Z,72.06
2022-12-31T11:16:14.571Z,71.48
2022-12-31T11:18:56.217Z,69.99
2022-12-31T11:21:44.133Z,69.41
2022-12-31T11:24:25.940Z,69.32
2022-12-31T11:27:21.023Z,68.31
2022-12-31T11:30:14.495Z,67.90
2022-12-31T11:33:02.493Z,66.96
2022-12-31T11:35:48.639Z,66.91
2022-12-31T11:38:28.118Z,67.07
2022-12-31T11:41:06.529Z,67.29
2022-12-31T11:43:41.882Z,68.18
2022-12-31T11:46:37.471Z,68.39
2022-12-31T11:49:35.483Z,68.72
2022-12-31T11:52:33.002Z,67.92
2022-12-31T11:55:32.705Z,67.94
2022-12-31T11:58:15.170Z,67.57
2022-12-31T12:00:55.263Z,66.29
2022-12-31T12:03:28.418Z,65.23
2022-12-31T12:06:00.309Z,64.83
2022-12-31T12:08:34.717Z,64.31
2022-12-31T12:11:11.342Z,64.77
2022-12-31T12:13:41.984Z,64.70
2022-12-31T12:16:12.390Z,65.03
2022-12-31T12:18:49.854Z,64.93
2022-12-31T12:21:23.273Z,64.85
2022-12-31T12:24:01.761Z,64.96
2022-12-31T12:26:38.237Z,64.46
2022-12-31T12:29:14.086Z,64.01
2022-12-31T12:31:45.579Z,63.36
2022-12-31T12:34:30.130Z,62.73
2022-12-31T12:37:01.204Z,61.60
2022-12-31T12:39:34.864Z,60.31
2022-12-31T12:42:09.787Z,59.98
2022-12-31T12:44:41.904Z,59.70
2022-12-31T12:47:18.598Z,61.56
2022-12-31T12:49:56.929Z,62.05
2022-12-31T12:52:59.553Z,60.81
2022-12-31T12:55:43.056Z,59.60
2022-12-31T12:58:29.677Z,60.08
2022-12-31T13:01:13.017Z,61.73
2022-12-31T13:04:37.423Z,63.25
2022-12-31T13:07:31.243Z,65.04
2022-12-31T13:10:41.075Z,65.14
2022-12-31T13:13:30.570Z,65.72
2022-12-31T13:16:12.372Z,66.11
2022-12-31T13:18:56.649Z,66.73
2022-12-31T13:21:49.007Z,67.17
2022-12-31T13:24:46.308Z,67.90
2022-12-31T13:27:26.783Z,68.15
2022-12-31T13:30:04.027Z,68.29
2022-12-31T13:32:43.359Z,68.72
2022-12-31T13:35:28.776Z,68.82
2022-12-31T13:38:06.660Z,68.98
2022-12-31T13:40:50.795Z,69.10
2022-12-31T13:43:30.628Z,69.44
2022-12-31T13:46:14.758Z,70.07
2022-12-31T13:48:52.621Z,70.09
2022-12-31T13:51:34.844Z,70.11
2022-12-31T13:54:10.807Z,70.61
2022-12-31T13:56:46.338Z,71.17
2022-12-31T13:59:23.247Z,70.90
2022-12-31T14:02:01.096Z,70.78
2022-12-31T14:04:37.232Z,70.81
2022-12-31T14:07:15.419Z,70.92
2022-12-31T14:09:46.618Z,71.15
2022-12-31T14:12:33.987Z,70.78
2022-12-31T14:15:19.843Z,71.05
2022-12-31T14:18:04.446Z,71.17
2022-12-31T14:20:48.077Z,71.34
2022-12-31T14:23:30.366Z,71.23
2022-12-31T14:26:04.783Z,71.45
2022-12-31T14:28:46.796Z,71.71
2022-12-31T14:31:29.893Z,71.69
2022-12-31T14:34:09.653Z,71.90
2022-12-31T14:36:53.046Z,71.75
2022-12-31T14:39:42.909Z,72.07
2022-12-31T14:42:26.211Z,72.12
2022-12-31T14:45:20.808Z,71.88
2022-12-31T14:47:57.770Z,72.04
2022-12-31T14:50:31.447Z,72.22
2022-12-31T14:53:12.330Z,72.74
2022-12-31T14:55:43.796Z,72.73
2022-12-31T14:58:28.100Z,72.90
2022-12-31T15:01:04.528Z,72.67
2022-12-31T15:03:45.915Z,72.59
2022-12-31T15:06:42.145Z,72.75
2022-12-31T15:09:31.977Z,72.90
2022-12-31T15:12:24.179Z,73.05
2022-12-31T15:15:33.467Z,73.05
2022-12-31T15:18:35.050Z,73.33
2022-12-31T15:21:37.425Z,73.16
2022-12-31T15:24:21.041Z,72.92
2022-12-31T15:26:55.117Z,72.52
2022-12-31T15:29:35.817Z,72.76
2022-12-31T15:32:11.121Z,72.70
2022-12-31T15:34:44.145Z,72.73
2022-12-31T15:37:32.788Z,72.86
2022-12-31T15:40:25.175Z,72.85
2022-12-31T15:42:59.259Z,72.89
2022-12-31T15:45:36.454Z,72.62
2022-12-31T15:48:13.394Z,72.67
2022-12-31T15:50:47.889Z,72.66
2022-12-31T15:53:30.393Z,72.51
2022-12-31T15:56:03.208Z,72.58
2022-12-31T15:58:37.124Z,72.67
2022-12-31T16:01:18.004Z,72.64
2022-12-31T16:03:52.100Z,72.59
2022-12-31T16:06:25.834Z,72.33
2022-12-31T16:08:56.306Z,72.37
2022-12-31T16:11:30.518Z,72.02
2022-12-31T16:14:02.302Z,71.84
2022-12-31T16:16:36.110Z,71.61
2022-12-31T16:19:06.532Z,71.96
2022-12-31T16:21:41.491Z,71.61
2022-12-31T16:24:31.848Z,71.58
2022-12-31T16:27:07.478Z,71.44
2022-12-31T16:29:40.419Z,71.07
2022-12-31T16:32:15.458Z,70.87
2022-12-31T16:34:46.502Z,70.83
2022-12-31T16:37:23.915Z,70.77
2022-12-31T16:40:27.410Z,70.98
2022-12-31T16:42:57.820Z,70.88
2022-12-31T16:45:39.370Z,70.78
2022-12-31T16:48:19.704Z,71.14
2022-12-31T16:50:53.954Z,71.46
2022-12-31T16:53:32.630Z,71.43
2022-12-31T16:56:06.210Z,71.09
2022-12-31T16:58:40.344Z,71.39
2022-12-31T17:01:17.646Z,70.73
2022-12-31T17:03:54.377Z,70.66
2022-12-31T17:06:27.282Z,70.09
2022-12-31T17:09:15.679Z,70.12
2022-12-31T17:11:48.365Z,69.64
2022-12-31T17:14:23.107Z,69.49
2022-12-31T17:17:07.047Z,69.50
2022-12-31T17:19:45.104Z,69.10
2022-12-31T17:22:32.824Z,68.90
2022-12-31T17:25:11.665Z,68.89
2022-12-31T17:27:42.132Z,68.84
2022-12-31T17:30:40.475Z,68.92
2022-12-31T17:33:34.840Z,68.35
2022-12-31T17:36:26.254Z,68.20
2022-12-31T17:38:56.747Z,67.75
2022-12-31T17:41:30.912Z,67.48
2022-12-31T17:44:01.391Z,67.11
2022-12-31T17:46:43.521Z,66.92
2022-12-31T17:49:16.816Z,66.69
2022-12-31T17:51:47.870Z,66.10
2022-12-31T17:54:19.860Z,65.94
2022-12-31T17:56:53.356Z,65.78
2022-12-31T17:59:29.797Z,65.51
2022-12-31T18:02:04.098Z,65.50
2022-12-31T18:04:34.646Z,65.09
2022-12-31T18:07:05.027Z,65.18
2022-12-31T18:09:35.386Z,65.15
2022-12-31T18:12:10.158Z,65.09
2022-12-31T18:14:40.557Z,65.04
2022-12-31T18:17:17.480Z,64.62
2022-12-31T18:20:04.650Z,64.57
2022-12-31T18:22:35.979Z,64.95
2022-12-31T18:25:08.020Z,64.29
2022-12-31T18:27:42.135Z,64.35
2022-12-31T18:30:16.587Z,63.86
2022-12-31T18:32:48.222Z,63.56
2022-12-31T18:38:17.430Z,63.67
2022-12-31T18:40:54.225Z,63.31
2022-12-31T18:43:27.805Z,62.93
2022-12-31T18:45:58.402Z,62.79
2022-12-31T18:48:29.101Z,62.51
2022-12-31T18:50:59.793Z,62.37
2022-12-31T18:53:30.169Z,62.50
2022-12-31T18:56:01.416Z,62.52
2022-12-31T18:58:34.381Z,62.59
2022-12-31T19:01:04.996Z,61.93
2022-12-31T19:03:35.453Z,61.86
2022-12-31T19:06:05.876Z,61.58
2022-12-31T19:08:36.373Z,61.40
2022-12-31T19:11:06.908Z,61.45
2022-12-31T19:13:39.916Z,61.13
2022-12-31T19:16:14.056Z,61.48
2022-12-31T19:18:44.971Z,61.54
2022-12-31T19:21:19.747Z,61.61
2022-12-31T19:23:50.605Z,61.67
2022-12-31T19:26:22.182Z,61.86
2022-12-31T19:28:55.715Z,62.14
2022-12-31T19:31:26.332Z,62.02
2022-12-31T19:33:56.901Z,61.91
2022-12-31T19:36:27.425Z,61.53
2022-12-31T19:38:57.907Z,61.45
2022-12-31T19:41:28.476Z,61.53
2022-12-31T19:44:01.993Z,61.28
2022-12-31T19:46:32.506Z,61.45
2022-12-31T19:49:03.067Z,61.36
2022-12-31T19:51:33.702Z,61.26
2022-12-31T19:54:04.242Z,61.21
2022-12-31T19:56:35.010Z,60.96
2022-12-31T19:59:10.532Z,60.91
2022-12-31T20:01:41.937Z,60.61
2022-12-31T20:04:12.593Z,60.52
2022-12-31T20:06:43.074Z,60.21
2022-12-31T20:09:15.034Z,60.33
2022-12-31T20:11:45.466Z,59.89
2022-12-31T20:14:18.748Z,59.69
2022-12-31T20:16:49.212Z,59.45
2022-12-31T20:19:19.641Z,59.29
2022-12-31T20:21:50.104Z,59.17
2022-12-31T20:24:20.608Z,59.07
2022-12-31T20:26:51.036Z,59.00
2022-12-31T20:29:24.236Z,59.11
2022-12-31T20:31:54.765Z,58.86
2022-12-31T20:34:25.248Z,58.70
2022-12-31T20:36:55.738Z,58.19
2022-12-31T20:39:26.289Z,57.97
2022-12-31T20:41:56.787Z,58.04
2022-12-31T20:44:29.914Z,57.48
2022-12-31T20:47:00.336Z,57.45
2022-12-31T20:50:09.118Z,56.88
2022-12-31T20:52:23.604Z,56.69
2022-12-31T20:54:54.051Z,56.42
2022-12-31T20:57:27.676Z,56.24
2022-12-31T21:00:05.004Z,55.92
2022-12-31T21:02:41.940Z,55.42
2022-12-31T21:05:14.335Z,55.13
2022-12-31T21:07:44.939Z,55.00
2022-12-31T21:10:15.791Z,54.45
2022-12-31T21:12:43.674Z,54.18
2022-12-31T21:15:17.109Z,53.27
2022-12-31T21:17:47.462Z,52.38
2022-12-31T21:20:17.991Z,51.07
2022-12-31T21:22:48.436Z,50.85
2022-12-31T21:25:19.129Z,50.75
2022-12-31T21:27:49.629Z,50.51
2022-12-31T21:30:22.669Z,50.73
2022-12-31T21:32:53.075Z,50.22
2022-12-31T21:38:13.795Z,49.70
2022-12-31T21:40:45.124Z,50.30
2022-12-31T21:43:16.452Z,49.91
2022-12-31T21:45:49.601Z,50.01
2022-12-31T21:48:26.096Z,50.05
2022-12-31T21:50:58.538Z,50.17
2022-12-31T21:53:36.175Z,50.43
2022-12-31T21:56:09.075Z,50.67
2022-12-31T21:58:40.270Z,50.96
2022-12-31T22:01:31.628Z,51.12
2022-12-31T22:04:02.018Z,51.69
2022-12-31T22:06:33.138Z,51.76
2022-12-31T22:09:03.455Z,52.24
2022-12-31T22:11:33.915Z,52.24
2022-12-31T22:14:04.416Z,52.04
2022-12-31T22:16:37.442Z,52.30
2022-12-31T22:19:08.191Z,52.33
2022-12-31T22:21:38.578Z,52.54
2022-12-31T22:24:10.102Z,52.74
2022-12-31T22:26:46.464Z,52.71
2022-12-31T22:29:19.311Z,52.86
2022-12-31T22:31:56.727Z,53.00
2022-12-31T22:34:29.749Z,53.08
2022-12-31T22:37:09.023Z,53.23
2022-12-31T22:39:50.518Z,53.77
2022-12-31T22:42:20.928Z,53.95
2022-12-31T22:44:51.300Z,53.86
2022-12-31T22:47:24.368Z,53.98
2022-12-31T22:49:54.756Z,54.13
2022-12-31T22:52:25.317Z,54.44
2022-12-31T22:54:55.754Z,54.41
2022-12-31T22:57:26.173Z,54.41
2022-12-31T22:59:56.499Z,54.62
2022-12-31T23:02:29.647Z,54.74
2022-12-31T23:05:15.376Z,54.74
2022-12-31T23:07:46.846Z,54.88
2022-12-31T23:10:35.214Z,54.88
2022-12-31T23:13:17.874Z,54.90
2022-12-31T23:16:00.811Z,54.94
2022-12-31T23:18:46.223Z,55.17
2022-12-31T23:21:30.437Z,55.05
2022-12-31T23:24:00.798Z,55.41
2022-12-31T23:26:31.186Z,55.42
2022-12-31T23:29:01.563Z,55.53
2022-12-31T23:31:32.060Z,55.28
2022-12-31T23:34:05.044Z,55.62
2022-12-31T23:36:35.474Z,55.03
2022-12-31T23:39:05.926Z,54.88
2022-12-31T23:41:36.293Z,54.81
2022-12-31T23:44:07.233Z,53.88
2022-12-31T23:46:37.615Z,53.81
2022-12-31T23:49:10.689Z,53.21
2022-12-31T23:51:41.113Z,53.15
2022-12-31T23:54:12.889Z,53.25
2022-12-31T23:56:43.757Z,52.75
2022-12-31T23:59:14.772Z,52.98
